sensor_id;sensor_type;location;lat;lon;timestamp;P1;durP1;ratioP1;P2;durP2;ratioP2
45548;SDS011;31270;48.328;10.096;2024-03-08T00:00:05;52.30;;;23.77;;
45548;SDS011;31270;48.328;10.096;2024-03-08T00:02:36;48.37;;;23.03;;
45548;SDS011;31270;48.328;10.096;2024-03-08T00:05:03;48.17;;;22.90;;
45548;SDS011;31270;48.328;10.096;2024-03-08T00:07:29;45.90;;;22.97;;
45548;SDS011;31270;48.328;10.096;2024-03-08T00:09:55;45.13;;;22.27;;
45548;SDS011;31270;48.328;10.096;2024-03-08T00:12:21;45.73;;;23.27;;
45548;SDS011;31270;48.328;10.096;2024-03-08T00:14:46;53.10;;;23.53;;
45548;SDS011;31270;48.328;10.096;2024-03-08T00:17:12;46.43;;;22.90;;
45548;SDS011;31270;48.328;10.096;2024-03-08T00:19:37;51.33;;;23.30;;
45548;SDS011;31270;48.328;10.096;2024-03-08T00:22:04;48.60;;;22.30;;
45548;SDS011;31270;48.328;10.096;2024-03-08T00:24:29;52.37;;;24.07;;
45548;SDS011;31270;48.328;10.096;2024-03-08T00:26:55;51.93;;;24.07;;
45548;SDS011;31270;48.328;10.096;2024-03-08T00:29:21;51.33;;;23.10;;
45548;SDS011;31270;48.328;10.096;2024-03-08T00:31:47;46.80;;;22.67;;
45548;SDS011;31270;48.328;10.096;2024-03-08T00:34:13;47.17;;;22.07;;
45548;SDS011;31270;48.328;10.096;2024-03-08T00:36:38;47.83;;;23.17;;
45548;SDS011;31270;48.328;10.096;2024-03-08T00:39:04;43.27;;;22.13;;
45548;SDS011;31270;48.328;10.096;2024-03-08T00:41:32;52.20;;;23.47;;
45548;SDS011;31270;48.328;10.096;2024-03-08T00:43:57;49.03;;;22.80;;
45548;SDS011;31270;48.328;10.096;2024-03-08T00:46:23;51.47;;;23.57;;
45548;SDS011;31270;48.328;10.096;2024-03-08T00:48:49;51.47;;;23.60;;
45548;SDS011;31270;48.328;10.096;2024-03-08T00:51:15;44.27;;;22.40;;
45548;SDS011;31270;48.328;10.096;2024-03-08T00:53:41;49.30;;;22.57;;
45548;SDS011;31270;48.328;10.096;2024-03-08T00:56:08;46.20;;;22.23;;
45548;SDS011;31270;48.328;10.096;2024-03-08T00:58:36;46.43;;;22.73;;
45548;SDS011;31270;48.328;10.096;2024-03-08T01:01:02;46.23;;;22.73;;
45548;SDS011;31270;48.328;10.096;2024-03-08T01:03:29;42.30;;;21.27;;
45548;SDS011;31270;48.328;10.096;2024-03-08T01:05:59;45.63;;;21.10;;
45548;SDS011;31270;48.328;10.096;2024-03-08T01:08:26;47.77;;;22.40;;
45548;SDS011;31270;48.328;10.096;2024-03-08T01:10:52;47.70;;;22.27;;
45548;SDS011;31270;48.328;10.096;2024-03-08T01:13:18;44.83;;;23.23;;
45548;SDS011;31270;48.328;10.096;2024-03-08T01:15:44;40.10;;;21.37;;
45548;SDS011;31270;48.328;10.096;2024-03-08T01:18:10;44.37;;;21.30;;
45548;SDS011;31270;48.328;10.096;2024-03-08T01:20:36;48.97;;;21.87;;
45548;SDS011;31270;48.328;10.096;2024-03-08T01:23:02;40.97;;;20.60;;
45548;SDS011;31270;48.328;10.096;2024-03-08T01:25:28;46.70;;;22.20;;
45548;SDS011;31270;48.328;10.096;2024-03-08T01:27:54;43.43;;;22.43;;
45548;SDS011;31270;48.328;10.096;2024-03-08T01:30:20;45.03;;;21.93;;
45548;SDS011;31270;48.328;10.096;2024-03-08T01:32:45;43.93;;;21.70;;
45548;SDS011;31270;48.328;10.096;2024-03-08T01:35:11;46.27;;;22.70;;
45548;SDS011;31270;48.328;10.096;2024-03-08T01:37:37;39.87;;;22.00;;
45548;SDS011;31270;48.328;10.096;2024-03-08T01:40:03;46.60;;;21.73;;
45548;SDS011;31270;48.328;10.096;2024-03-08T01:42:29;39.13;;;20.30;;
45548;SDS011;31270;48.328;10.096;2024-03-08T01:44:55;46.53;;;22.57;;
45548;SDS011;31270;48.328;10.096;2024-03-08T01:47:21;40.37;;;20.17;;
45548;SDS011;31270;48.328;10.096;2024-03-08T01:49:48;46.70;;;20.77;;
45548;SDS011;31270;48.328;10.096;2024-03-08T01:52:15;45.87;;;21.27;;
45548;SDS011;31270;48.328;10.096;2024-03-08T01:54:41;45.50;;;21.67;;
45548;SDS011;31270;48.328;10.096;2024-03-08T01:57:07;43.40;;;21.57;;
45548;SDS011;31270;48.328;10.096;2024-03-08T01:59:33;47.73;;;22.07;;
45548;SDS011;31270;48.328;10.096;2024-03-08T02:02:00;41.70;;;20.43;;
45548;SDS011;31270;48.328;10.096;2024-03-08T02:04:28;42.37;;;20.97;;
45548;SDS011;31270;48.328;10.096;2024-03-08T02:06:56;43.30;;;20.77;;
45548;SDS011;31270;48.328;10.096;2024-03-08T02:09:23;38.87;;;20.47;;
45548;SDS011;31270;48.328;10.096;2024-03-08T02:11:50;42.20;;;20.80;;
45548;SDS011;31270;48.328;10.096;2024-03-08T02:14:16;41.43;;;20.50;;
45548;SDS011;31270;48.328;10.096;2024-03-08T02:16:43;49.37;;;22.73;;
45548;SDS011;31270;48.328;10.096;2024-03-08T02:19:09;37.47;;;20.03;;
45548;SDS011;31270;48.328;10.096;2024-03-08T02:21:35;42.67;;;21.30;;
45548;SDS011;31270;48.328;10.096;2024-03-08T02:24:01;40.33;;;20.43;;
45548;SDS011;31270;48.328;10.096;2024-03-08T02:26:27;40.03;;;20.23;;
45548;SDS011;31270;48.328;10.096;2024-03-08T02:28:52;39.47;;;20.40;;
45548;SDS011;31270;48.328;10.096;2024-03-08T02:31:19;41.57;;;19.90;;
45548;SDS011;31270;48.328;10.096;2024-03-08T02:33:46;40.53;;;20.87;;
45548;SDS011;31270;48.328;10.096;2024-03-08T02:36:12;37.37;;;19.37;;
45548;SDS011;31270;48.328;10.096;2024-03-08T02:38:38;39.10;;;19.83;;
45548;SDS011;31270;48.328;10.096;2024-03-08T02:41:06;39.30;;;19.10;;
45548;SDS011;31270;48.328;10.096;2024-03-08T02:43:33;42.87;;;21.20;;
45548;SDS011;31270;48.328;10.096;2024-03-08T02:45:59;41.73;;;20.43;;
45548;SDS011;31270;48.328;10.096;2024-03-08T02:48:25;37.20;;;20.23;;
45548;SDS011;31270;48.328;10.096;2024-03-08T02:50:51;41.93;;;20.07;;
45548;SDS011;31270;48.328;10.096;2024-03-08T02:53:16;39.67;;;19.90;;
45548;SDS011;31270;48.328;10.096;2024-03-08T02:55:44;42.57;;;21.03;;
45548;SDS011;31270;48.328;10.096;2024-03-08T02:58:09;44.57;;;20.97;;
45548;SDS011;31270;48.328;10.096;2024-03-08T03:00:38;42.80;;;19.77;;
45548;SDS011;31270;48.328;10.096;2024-03-08T03:03:05;45.87;;;21.60;;
45548;SDS011;31270;48.328;10.096;2024-03-08T03:05:32;38.43;;;19.67;;
45548;SDS011;31270;48.328;10.096;2024-03-08T03:07:58;46.17;;;21.70;;
45548;SDS011;31270;48.328;10.096;2024-03-08T03:10:25;42.00;;;20.10;;
45548;SDS011;31270;48.328;10.096;2024-03-08T03:12:51;44.47;;;20.63;;
45548;SDS011;31270;48.328;10.096;2024-03-08T03:15:16;48.10;;;21.00;;
45548;SDS011;31270;48.328;10.096;2024-03-08T03:17:51;48.77;;;23.23;;
45548;SDS011;31270;48.328;10.096;2024-03-08T03:20:17;37.93;;;20.23;;
45548;SDS011;31270;48.328;10.096;2024-03-08T03:22:57;40.43;;;20.27;;
45548;SDS011;31270;48.328;10.096;2024-03-08T03:25:28;39.20;;;20.70;;
45548;SDS011;31270;48.328;10.096;2024-03-08T03:27:58;36.57;;;19.10;;
45548;SDS011;31270;48.328;10.096;2024-03-08T03:30:25;39.47;;;20.87;;
45548;SDS011;31270;48.328;10.096;2024-03-08T03:32:59;38.57;;;19.93;;
45548;SDS011;31270;48.328;10.096;2024-03-08T03:35:26;44.93;;;21.90;;
45548;SDS011;31270;48.328;10.096;2024-03-08T03:37:52;48.13;;;20.33;;
45548;SDS011;31270;48.328;10.096;2024-03-08T03:40:38;46.43;;;21.10;;
45548;SDS011;31270;48.328;10.096;2024-03-08T03:43:06;40.53;;;19.47;;
45548;SDS011;31270;48.328;10.096;2024-03-08T03:45:32;40.30;;;20.40;;
45548;SDS011;31270;48.328;10.096;2024-03-08T03:48:03;43.90;;;20.77;;
45548;SDS011;31270;48.328;10.096;2024-03-08T03:50:34;48.47;;;23.53;;
45548;SDS011;31270;48.328;10.096;2024-03-08T03:53:00;45.23;;;21.80;;
45548;SDS011;31270;48.328;10.096;2024-03-08T03:55:27;41.83;;;20.73;;
45548;SDS011;31270;48.328;10.096;2024-03-08T03:57:54;46.93;;;20.37;;
45548;SDS011;31270;48.328;10.096;2024-03-08T04:00:20;41.57;;;21.93;;
45548;SDS011;31270;48.328;10.096;2024-03-08T04:02:45;45.23;;;21.20;;
45548;SDS011;31270;48.328;10.096;2024-03-08T04:05:11;43.30;;;19.90;;
45548;SDS011;31270;48.328;10.096;2024-03-08T04:07:38;42.87;;;21.20;;
45548;SDS011;31270;48.328;10.096;2024-03-08T04:10:04;47.17;;;22.87;;
45548;SDS011;31270;48.328;10.096;2024-03-08T04:12:32;45.00;;;22.40;;
45548;SDS011;31270;48.328;10.096;2024-03-08T04:14:59;43.10;;;21.30;;
45548;SDS011;31270;48.328;10.096;2024-03-08T04:17:25;44.90;;;20.60;;
45548;SDS011;31270;48.328;10.096;2024-03-08T04:19:51;42.43;;;20.87;;
45548;SDS011;31270;48.328;10.096;2024-03-08T04:22:16;41.90;;;20.63;;
45548;SDS011;31270;48.328;10.096;2024-03-08T04:24:43;44.80;;;22.13;;
45548;SDS011;31270;48.328;10.096;2024-03-08T04:27:09;37.17;;;20.57;;
45548;SDS011;31270;48.328;10.096;2024-03-08T04:29:35;42.70;;;20.13;;
45548;SDS011;31270;48.328;10.096;2024-03-08T04:32:02;43.93;;;20.07;;
45548;SDS011;31270;48.328;10.096;2024-03-08T04:34:29;42.43;;;19.93;;
45548;SDS011;31270;48.328;10.096;2024-03-08T04:36:56;38.50;;;20.10;;
45548;SDS011;31270;48.328;10.096;2024-03-08T04:39:23;45.87;;;21.57;;
45548;SDS011;31270;48.328;10.096;2024-03-08T04:41:49;46.47;;;22.53;;
45548;SDS011;31270;48.328;10.096;2024-03-08T04:44:15;39.27;;;20.40;;
45548;SDS011;31270;48.328;10.096;2024-03-08T04:46:42;45.47;;;21.60;;
45548;SDS011;31270;48.328;10.096;2024-03-08T04:49:09;42.07;;;20.60;;
45548;SDS011;31270;48.328;10.096;2024-03-08T04:51:37;41.40;;;20.47;;
45548;SDS011;31270;48.328;10.096;2024-03-08T04:54:02;43.70;;;22.13;;
45548;SDS011;31270;48.328;10.096;2024-03-08T04:56:29;47.23;;;21.90;;
45548;SDS011;31270;48.328;10.096;2024-03-08T04:58:55;46.67;;;21.87;;
45548;SDS011;31270;48.328;10.096;2024-03-08T05:01:21;40.33;;;19.60;;
45548;SDS011;31270;48.328;10.096;2024-03-08T05:03:47;41.80;;;20.37;;
45548;SDS011;31270;48.328;10.096;2024-03-08T05:06:15;48.13;;;23.13;;
45548;SDS011;31270;48.328;10.096;2024-03-08T05:08:41;44.97;;;20.83;;
45548;SDS011;31270;48.328;10.096;2024-03-08T05:11:06;44.97;;;21.43;;
45548;SDS011;31270;48.328;10.096;2024-03-08T05:13:32;45.17;;;21.00;;
45548;SDS011;31270;48.328;10.096;2024-03-08T05:15:59;44.53;;;21.43;;
45548;SDS011;31270;48.328;10.096;2024-03-08T05:18:25;45.00;;;21.97;;
45548;SDS011;31270;48.328;10.096;2024-03-08T05:20:53;46.07;;;23.23;;
45548;SDS011;31270;48.328;10.096;2024-03-08T05:23:18;46.90;;;21.83;;
45548;SDS011;31270;48.328;10.096;2024-03-08T05:25:44;42.40;;;20.40;;
45548;SDS011;31270;48.328;10.096;2024-03-08T05:28:12;46.97;;;22.90;;
45548;SDS011;31270;48.328;10.096;2024-03-08T05:30:38;52.57;;;23.47;;
45548;SDS011;31270;48.328;10.096;2024-03-08T05:33:03;47.50;;;22.30;;
45548;SDS011;31270;48.328;10.096;2024-03-08T05:35:29;46.67;;;23.27;;
45548;SDS011;31270;48.328;10.096;2024-03-08T05:37:55;47.60;;;21.93;;
45548;SDS011;31270;48.328;10.096;2024-03-08T05:40:23;53.17;;;24.33;;
45548;SDS011;31270;48.328;10.096;2024-03-08T05:42:49;45.87;;;22.40;;
45548;SDS011;31270;48.328;10.096;2024-03-08T05:45:15;49.37;;;22.00;;
45548;SDS011;31270;48.328;10.096;2024-03-08T05:47:41;49.97;;;23.07;;
45548;SDS011;31270;48.328;10.096;2024-03-08T05:50:07;52.30;;;22.87;;
45548;SDS011;31270;48.328;10.096;2024-03-08T05:52:35;50.23;;;23.53;;
45548;SDS011;31270;48.328;10.096;2024-03-08T05:55:02;51.13;;;24.47;;
45548;SDS011;31270;48.328;10.096;2024-03-08T05:57:32;47.73;;;22.87;;
45548;SDS011;31270;48.328;10.096;2024-03-08T05:59:57;46.40;;;23.60;;
45548;SDS011;31270;48.328;10.096;2024-03-08T06:02:23;45.97;;;23.20;;
45548;SDS011;31270;48.328;10.096;2024-03-08T06:04:49;47.90;;;23.50;;
45548;SDS011;31270;48.328;10.096;2024-03-08T06:07:14;47.73;;;22.83;;
45548;SDS011;31270;48.328;10.096;2024-03-08T06:09:42;48.03;;;23.63;;
45548;SDS011;31270;48.328;10.096;2024-03-08T06:12:11;50.23;;;23.53;;
45548;SDS011;31270;48.328;10.096;2024-03-08T06:14:36;43.57;;;23.20;;
45548;SDS011;31270;48.328;10.096;2024-03-08T06:17:02;48.50;;;22.87;;
45548;SDS011;31270;48.328;10.096;2024-03-08T06:19:32;42.97;;;20.67;;
45548;SDS011;31270;48.328;10.096;2024-03-08T06:21:58;45.23;;;23.07;;
45548;SDS011;31270;48.328;10.096;2024-03-08T06:24:24;47.73;;;23.47;;
45548;SDS011;31270;48.328;10.096;2024-03-08T06:26:49;48.30;;;23.50;;
45548;SDS011;31270;48.328;10.096;2024-03-08T06:29:15;52.53;;;25.73;;
45548;SDS011;31270;48.328;10.096;2024-03-08T06:31:41;44.20;;;22.30;;
45548;SDS011;31270;48.328;10.096;2024-03-08T06:34:07;49.47;;;24.13;;
45548;SDS011;31270;48.328;10.096;2024-03-08T06:36:33;48.67;;;24.47;;
45548;SDS011;31270;48.328;10.096;2024-03-08T06:38:58;51.20;;;22.87;;
45548;SDS011;31270;48.328;10.096;2024-03-08T06:41:24;52.77;;;23.47;;
45548;SDS011;31270;48.328;10.096;2024-03-08T06:43:50;51.00;;;23.80;;
45548;SDS011;31270;48.328;10.096;2024-03-08T06:46:17;49.53;;;23.63;;
45548;SDS011;31270;48.328;10.096;2024-03-08T06:48:43;51.03;;;23.33;;
45548;SDS011;31270;48.328;10.096;2024-03-08T06:51:10;51.37;;;22.23;;
45548;SDS011;31270;48.328;10.096;2024-03-08T06:53:37;46.73;;;21.90;;
45548;SDS011;31270;48.328;10.096;2024-03-08T06:56:03;49.07;;;23.40;;
45548;SDS011;31270;48.328;10.096;2024-03-08T06:58:29;51.10;;;24.57;;
45548;SDS011;31270;48.328;10.096;2024-03-08T07:00:55;49.03;;;23.77;;
45548;SDS011;31270;48.328;10.096;2024-03-08T07:03:23;48.73;;;23.27;;
45548;SDS011;31270;48.328;10.096;2024-03-08T07:05:49;47.20;;;21.37;;
45548;SDS011;31270;48.328;10.096;2024-03-08T07:08:14;48.67;;;22.50;;
45548;SDS011;31270;48.328;10.096;2024-03-08T07:10:41;45.60;;;21.27;;
45548;SDS011;31270;48.328;10.096;2024-03-08T07:13:07;47.40;;;22.83;;
45548;SDS011;31270;48.328;10.096;2024-03-08T07:15:32;41.37;;;20.40;;
45548;SDS011;31270;48.328;10.096;2024-03-08T07:17:59;49.83;;;23.10;;
45548;SDS011;31270;48.328;10.096;2024-03-08T07:20:27;47.53;;;22.57;;
45548;SDS011;31270;48.328;10.096;2024-03-08T07:22:53;54.30;;;24.93;;
45548;SDS011;31270;48.328;10.096;2024-03-08T07:25:19;54.77;;;22.57;;
45548;SDS011;31270;48.328;10.096;2024-03-08T07:27:49;50.63;;;24.17;;
45548;SDS011;31270;48.328;10.096;2024-03-08T07:30:22;46.03;;;24.13;;
45548;SDS011;31270;48.328;10.096;2024-03-08T07:33:08;49.73;;;23.73;;
45548;SDS011;31270;48.328;10.096;2024-03-08T07:35:37;46.10;;;22.53;;
45548;SDS011;31270;48.328;10.096;2024-03-08T07:38:12;50.30;;;24.13;;
45548;SDS011;31270;48.328;10.096;2024-03-08T07:40:38;46.23;;;21.80;;
45548;SDS011;31270;48.328;10.096;2024-03-08T07:43:08;47.50;;;23.53;;
45548;SDS011;31270;48.328;10.096;2024-03-08T07:45:35;45.97;;;22.90;;
45548;SDS011;31270;48.328;10.096;2024-03-08T07:48:02;44.40;;;21.00;;
45548;SDS011;31270;48.328;10.096;2024-03-08T07:50:28;47.40;;;22.67;;
45548;SDS011;31270;48.328;10.096;2024-03-08T07:52:54;50.33;;;24.63;;
45548;SDS011;31270;48.328;10.096;2024-03-08T07:55:19;46.80;;;23.97;;
45548;SDS011;31270;48.328;10.096;2024-03-08T07:57:49;49.40;;;24.37;;
45548;SDS011;31270;48.328;10.096;2024-03-08T08:00:14;51.93;;;23.40;;
45548;SDS011;31270;48.328;10.096;2024-03-08T08:02:43;53.73;;;23.50;;
45548;SDS011;31270;48.328;10.096;2024-03-08T08:05:10;51.97;;;24.57;;
45548;SDS011;31270;48.328;10.096;2024-03-08T08:07:36;47.50;;;24.00;;
45548;SDS011;31270;48.328;10.096;2024-03-08T08:10:02;49.67;;;25.03;;
45548;SDS011;31270;48.328;10.096;2024-03-08T08:12:28;49.43;;;23.97;;
45548;SDS011;31270;48.328;10.096;2024-03-08T08:14:54;49.17;;;24.07;;
45548;SDS011;31270;48.328;10.096;2024-03-08T08:17:19;48.33;;;23.63;;
45548;SDS011;31270;48.328;10.096;2024-03-08T08:19:45;46.43;;;22.57;;
45548;SDS011;31270;48.328;10.096;2024-03-08T08:22:11;44.03;;;23.20;;
45548;SDS011;31270;48.328;10.096;2024-03-08T08:24:36;45.27;;;23.03;;
45548;SDS011;31270;48.328;10.096;2024-03-08T08:27:02;47.03;;;21.77;;
45548;SDS011;31270;48.328;10.096;2024-03-08T08:29:29;52.10;;;23.73;;
45548;SDS011;31270;48.328;10.096;2024-03-08T08:31:57;47.53;;;22.83;;
45548;SDS011;31270;48.328;10.096;2024-03-08T08:34:24;48.83;;;23.40;;
45548;SDS011;31270;48.328;10.096;2024-03-08T08:36:51;49.63;;;24.03;;
45548;SDS011;31270;48.328;10.096;2024-03-08T08:39:18;53.07;;;23.80;;
45548;SDS011;31270;48.328;10.096;2024-03-08T08:41:44;51.30;;;23.83;;
45548;SDS011;31270;48.328;10.096;2024-03-08T08:44:09;47.37;;;22.73;;
45548;SDS011;31270;48.328;10.096;2024-03-08T08:46:37;47.90;;;24.03;;
45548;SDS011;31270;48.328;10.096;2024-03-08T08:49:03;45.43;;;22.93;;
45548;SDS011;31270;48.328;10.096;2024-03-08T08:51:35;44.97;;;22.93;;
45548;SDS011;31270;48.328;10.096;2024-03-08T08:54:03;46.80;;;22.60;;
45548;SDS011;31270;48.328;10.096;2024-03-08T08:56:31;51.97;;;24.13;;
45548;SDS011;31270;48.328;10.096;2024-03-08T08:58:57;46.07;;;24.10;;
45548;SDS011;31270;48.328;10.096;2024-03-08T09:01:23;47.80;;;22.83;;
45548;SDS011;31270;48.328;10.096;2024-03-08T09:03:48;50.60;;;23.90;;
45548;SDS011;31270;48.328;10.096;2024-03-08T09:06:15;49.40;;;24.40;;
45548;SDS011;31270;48.328;10.096;2024-03-08T09:08:41;47.30;;;22.63;;
45548;SDS011;31270;48.328;10.096;2024-03-08T09:11:07;50.70;;;24.00;;
45548;SDS011;31270;48.328;10.096;2024-03-08T09:13:33;44.33;;;22.60;;
45548;SDS011;31270;48.328;10.096;2024-03-08T09:15:59;49.47;;;23.93;;
45548;SDS011;31270;48.328;10.096;2024-03-08T09:18:24;47.97;;;23.43;;
45548;SDS011;31270;48.328;10.096;2024-03-08T09:20:50;47.97;;;23.07;;
45548;SDS011;31270;48.328;10.096;2024-03-08T09:23:16;49.37;;;23.37;;
45548;SDS011;31270;48.328;10.096;2024-03-08T09:25:44;48.63;;;22.93;;
45548;SDS011;31270;48.328;10.096;2024-03-08T09:28:11;45.90;;;22.70;;
45548;SDS011;31270;48.328;10.096;2024-03-08T09:30:38;48.63;;;23.60;;
45548;SDS011;31270;48.328;10.096;2024-03-08T09:33:04;46.27;;;23.97;;
45548;SDS011;31270;48.328;10.096;2024-03-08T09:35:30;58.30;;;25.17;;
45548;SDS011;31270;48.328;10.096;2024-03-08T09:37:56;45.07;;;22.10;;
45548;SDS011;31270;48.328;10.096;2024-03-08T09:40:22;50.93;;;24.07;;
45548;SDS011;31270;48.328;10.096;2024-03-08T09:42:50;47.90;;;23.33;;
45548;SDS011;31270;48.328;10.096;2024-03-08T09:45:17;47.37;;;23.20;;
45548;SDS011;31270;48.328;10.096;2024-03-08T09:47:47;43.53;;;23.00;;
45548;SDS011;31270;48.328;10.096;2024-03-08T09:50:14;50.30;;;23.00;;
45548;SDS011;31270;48.328;10.096;2024-03-08T09:52:43;44.10;;;23.17;;
45548;SDS011;31270;48.328;10.096;2024-03-08T09:55:12;42.57;;;23.13;;
45548;SDS011;31270;48.328;10.096;2024-03-08T09:57:38;44.80;;;23.97;;
45548;SDS011;31270;48.328;10.096;2024-03-08T10:00:05;48.63;;;24.23;;
45548;SDS011;31270;48.328;10.096;2024-03-08T10:02:48;46.03;;;23.40;;
45548;SDS011;31270;48.328;10.096;2024-03-08T10:05:17;50.03;;;24.07;;
45548;SDS011;31270;48.328;10.096;2024-03-08T10:07:43;42.80;;;22.70;;
45548;SDS011;31270;48.328;10.096;2024-03-08T10:10:10;50.43;;;23.93;;
45548;SDS011;31270;48.328;10.096;2024-03-08T10:12:37;45.67;;;22.13;;
45548;SDS011;31270;48.328;10.096;2024-03-08T10:15:06;41.70;;;22.27;;
45548;SDS011;31270;48.328;10.096;2024-03-08T10:17:34;45.33;;;21.83;;
45548;SDS011;31270;48.328;10.096;2024-03-08T10:19:59;46.83;;;22.20;;
45548;SDS011;31270;48.328;10.096;2024-03-08T10:22:26;44.37;;;23.17;;
45548;SDS011;31270;48.328;10.096;2024-03-08T10:24:51;42.60;;;22.67;;
45548;SDS011;31270;48.328;10.096;2024-03-08T10:27:17;45.33;;;22.10;;
45548;SDS011;31270;48.328;10.096;2024-03-08T10:29:44;44.00;;;22.70;;
45548;SDS011;31270;48.328;10.096;2024-03-08T10:32:12;44.60;;;22.57;;
45548;SDS011;31270;48.328;10.096;2024-03-08T10:34:38;41.97;;;21.70;;
45548;SDS011;31270;48.328;10.096;2024-03-08T10:37:04;39.53;;;20.77;;
45548;SDS011;31270;48.328;10.096;2024-03-08T10:39:34;42.30;;;20.07;;
45548;SDS011;31270;48.328;10.096;2024-03-08T10:42:02;41.70;;;20.90;;
45548;SDS011;31270;48.328;10.096;2024-03-08T10:52:29;43.23;;;22.17;;
45548;SDS011;31270;48.328;10.096;2024-03-08T10:54:54;37.37;;;19.20;;
45548;SDS011;31270;48.328;10.096;2024-03-08T10:57:22;41.97;;;21.17;;
45548;SDS011;31270;48.328;10.096;2024-03-08T10:59:49;42.87;;;22.17;;
45548;SDS011;31270;48.328;10.096;2024-03-08T11:02:15;38.60;;;19.27;;
45548;SDS011;31270;48.328;10.096;2024-03-08T11:04:50;43.13;;;20.93;;
45548;SDS011;31270;48.328;10.096;2024-03-08T11:07:16;39.80;;;20.57;;
45548;SDS011;31270;48.328;10.096;2024-03-08T11:09:44;41.33;;;21.13;;
45548;SDS011;31270;48.328;10.096;2024-03-08T11:12:22;40.77;;;20.40;;
45548;SDS011;31270;48.328;10.096;2024-03-08T11:14:51;43.33;;;20.63;;
45548;SDS011;31270;48.328;10.096;2024-03-08T11:17:25;39.00;;;21.03;;
45548;SDS011;31270;48.328;10.096;2024-03-08T11:19:58;36.87;;;20.37;;
45548;SDS011;31270;48.328;10.096;2024-03-08T11:22:27;34.23;;;17.30;;
45548;SDS011;31270;48.328;10.096;2024-03-08T11:25:03;37.97;;;21.13;;
45548;SDS011;31270;48.328;10.096;2024-03-08T11:27:37;37.97;;;19.07;;
45548;SDS011;31270;48.328;10.096;2024-03-08T11:30:06;35.13;;;19.77;;
45548;SDS011;31270;48.328;10.096;2024-03-08T11:32:43;32.83;;;18.40;;
45548;SDS011;31270;48.328;10.096;2024-03-08T11:35:20;35.10;;;20.00;;
45548;SDS011;31270;48.328;10.096;2024-03-08T11:37:48;38.53;;;19.50;;
45548;SDS011;31270;48.328;10.096;2024-03-08T11:40:14;36.60;;;20.30;;
45548;SDS011;31270;48.328;10.096;2024-03-08T11:42:48;39.10;;;20.70;;
45548;SDS011;31270;48.328;10.096;2024-03-08T11:45:16;37.63;;;20.60;;
45548;SDS011;31270;48.328;10.096;2024-03-08T11:47:46;38.43;;;20.30;;
45548;SDS011;31270;48.328;10.096;2024-03-08T11:50:13;38.77;;;19.23;;
45548;SDS011;31270;48.328;10.096;2024-03-08T11:52:39;33.37;;;19.13;;
45548;SDS011;31270;48.328;10.096;2024-03-08T11:55:05;41.13;;;20.37;;
45548;SDS011;31270;48.328;10.096;2024-03-08T11:57:31;33.73;;;18.57;;
45548;SDS011;31270;48.328;10.096;2024-03-08T11:59:57;35.10;;;19.43;;
45548;SDS011;31270;48.328;10.096;2024-03-08T12:02:35;35.07;;;19.00;;
45548;SDS011;31270;48.328;10.096;2024-03-08T12:05:01;38.30;;;20.50;;
45548;SDS011;31270;48.328;10.096;2024-03-08T12:07:31;36.43;;;20.47;;
45548;SDS011;31270;48.328;10.096;2024-03-08T12:10:19;37.40;;;19.53;;
45548;SDS011;31270;48.328;10.096;2024-03-08T12:12:47;35.93;;;20.90;;
45548;SDS011;31270;48.328;10.096;2024-03-08T12:15:16;34.27;;;21.40;;
45548;SDS011;31270;48.328;10.096;2024-03-08T12:17:43;34.30;;;18.40;;
45548;SDS011;31270;48.328;10.096;2024-03-08T12:20:20;32.60;;;18.93;;
45548;SDS011;31270;48.328;10.096;2024-03-08T12:22:55;37.17;;;19.20;;
45548;SDS011;31270;48.328;10.096;2024-03-08T12:25:41;33.93;;;18.87;;
45548;SDS011;31270;48.328;10.096;2024-03-08T12:28:10;34.87;;;18.90;;
45548;SDS011;31270;48.328;10.096;2024-03-08T12:30:47;35.27;;;18.77;;
45548;SDS011;31270;48.328;10.096;2024-03-08T12:33:19;33.07;;;18.87;;
45548;SDS011;31270;48.328;10.096;2024-03-08T12:35:51;36.43;;;19.13;;
45548;SDS011;31270;48.328;10.096;2024-03-08T12:38:24;37.17;;;19.70;;
45548;SDS011;31270;48.328;10.096;2024-03-08T12:40:58;34.43;;;19.27;;
45548;SDS011;31270;48.328;10.096;2024-03-08T12:43:24;33.67;;;18.23;;
45548;SDS011;31270;48.328;10.096;2024-03-08T12:45:49;34.23;;;19.53;;
45548;SDS011;31270;48.328;10.096;2024-03-08T12:48:16;34.53;;;20.23;;
45548;SDS011;31270;48.328;10.096;2024-03-08T12:50:42;33.97;;;19.60;;
45548;SDS011;31270;48.328;10.096;2024-03-08T12:53:10;34.00;;;18.80;;
45548;SDS011;31270;48.328;10.096;2024-03-08T12:55:36;35.13;;;19.73;;
45548;SDS011;31270;48.328;10.096;2024-03-08T12:58:01;35.57;;;20.10;;
45548;SDS011;31270;48.328;10.096;2024-03-08T13:00:28;35.70;;;20.90;;
45548;SDS011;31270;48.328;10.096;2024-03-08T13:02:54;35.33;;;21.07;;
45548;SDS011;31270;48.328;10.096;2024-03-08T13:05:20;35.20;;;19.57;;
45548;SDS011;31270;48.328;10.096;2024-03-08T13:07:46;39.40;;;21.23;;
45548;SDS011;31270;48.328;10.096;2024-03-08T13:10:12;40.60;;;20.87;;
45548;SDS011;31270;48.328;10.096;2024-03-08T13:12:42;38.40;;;20.83;;
45548;SDS011;31270;48.328;10.096;2024-03-08T13:15:08;49.67;;;28.07;;
45548;SDS011;31270;48.328;10.096;2024-03-08T13:17:36;41.57;;;21.60;;
45548;SDS011;31270;48.328;10.096;2024-03-08T13:20:05;45.57;;;24.43;;
45548;SDS011;31270;48.328;10.096;2024-03-08T13:22:41;39.37;;;21.53;;
45548;SDS011;31270;48.328;10.096;2024-03-08T13:25:07;37.90;;;21.67;;
45548;SDS011;31270;48.328;10.096;2024-03-08T13:27:38;36.87;;;20.63;;
45548;SDS011;31270;48.328;10.096;2024-03-08T13:30:08;36.30;;;21.23;;
45548;SDS011;31270;48.328;10.096;2024-03-08T13:32:41;36.13;;;20.90;;
45548;SDS011;31270;48.328;10.096;2024-03-08T13:35:08;35.83;;;21.30;;
45548;SDS011;31270;48.328;10.096;2024-03-08T13:37:40;34.30;;;20.20;;
45548;SDS011;31270;48.328;10.096;2024-03-08T13:40:07;35.03;;;19.93;;
45548;SDS011;31270;48.328;10.096;2024-03-08T13:42:39;36.23;;;19.80;;
45548;SDS011;31270;48.328;10.096;2024-03-08T13:45:09;32.90;;;19.53;;
45548;SDS011;31270;48.328;10.096;2024-03-08T13:47:39;35.73;;;19.43;;
45548;SDS011;31270;48.328;10.096;2024-03-08T13:50:08;34.63;;;20.00;;
45548;SDS011;31270;48.328;10.096;2024-03-08T13:52:38;33.27;;;19.80;;
45548;SDS011;31270;48.328;10.096;2024-03-08T13:55:05;31.70;;;19.67;;
45548;SDS011;31270;48.328;10.096;2024-03-08T13:57:31;29.93;;;18.10;;
45548;SDS011;31270;48.328;10.096;2024-03-08T13:59:57;31.17;;;18.43;;
45548;SDS011;31270;48.328;10.096;2024-03-08T14:02:23;33.80;;;18.23;;
45548;SDS011;31270;48.328;10.096;2024-03-08T14:04:53;34.20;;;19.07;;
45548;SDS011;31270;48.328;10.096;2024-03-08T14:07:19;31.47;;;18.80;;
45548;SDS011;31270;48.328;10.096;2024-03-08T14:09:45;34.63;;;19.03;;
45548;SDS011;31270;48.328;10.096;2024-03-08T14:12:11;33.80;;;18.83;;
45548;SDS011;31270;48.328;10.096;2024-03-08T14:14:37;44.07;;;24.97;;
45548;SDS011;31270;48.328;10.096;2024-03-08T14:17:03;32.23;;;18.90;;